Time;durP1;ratioP1;P1;durP2;ratioP2;P2;SDS_P1;SDS_P2;PMS_P1;PMS_P2;Temp;Humidity;BMP_temperature;BMP_pressure;BME280_temperature;BME280_humidity;BME280_pressure;Samples;Min_cycle;Max_cycle;Signal;HPM_P1;HPM_P2
2021/03/25 00:01:53;;;;;;;44.88;31.33;;;3.90;94.00;;;;;;5047585;28;20044;-81
2021/03/25 00:04:20;;;;;;;50.20;31.70;;;3.90;94.00;;;;;;5026339;28;20125;-81
2021/03/25 00:06:51;;;;;;;47.05;31.38;;;3.90;94.00;;;;;;5033299;28;20056;-81
2021/03/25 00:09:39;;;;;;;48.22;31.52;;;3.80;94.20;;;;;;5025676;28;20354;-81
2021/03/25 00:12:05;;;;;;;53.42;32.38;;;3.80;94.20;;;;;;5029370;28;20548;-81
2021/03/25 00:14:31;;;;;;;50.70;33.60;;;3.80;94.50;;;;;;5030600;28;20069;-81
2021/03/25 00:16:57;;;;;;;51.60;33.50;;;3.70;94.30;;;;;;5031583;28;20077;-81
2021/03/25 00:19:23;;;;;;;47.15;32.50;;;3.80;94.30;;;;;;5022030;28;20035;-81
2021/03/25 00:21:49;;;;;;;52.13;32.70;;;3.80;94.40;;;;;;5031482;28;20041;-81
2021/03/25 00:24:18;;;;;;;48.35;32.42;;;3.80;94.50;;;;;;5025090;28;20720;-81
2021/03/25 00:26:45;;;;;;;54.00;34.70;;;3.80;94.90;;;;;;5030783;28;20090;-81
2021/03/25 00:29:12;;;;;;;52.70;35.05;;;3.70;94.50;;;;;;5040195;28;20052;-81
2021/03/25 00:31:42;;;;;;;47.88;32.53;;;3.70;94.60;;;;;;5034987;28;20568;-81
2021/03/25 00:34:09;;;;;;;52.38;32.40;;;3.80;94.70;;;;;;5027102;28;20455;-81
2021/03/25 00:36:34;;;;;;;53.75;34.00;;;3.70;94.60;;;;;;5046988;28;20091;-81
2021/03/25 00:39:04;;;;;;;60.42;36.63;;;3.80;94.70;;;;;;5022583;28;20045;-81
2021/03/25 00:41:32;;;;;;;59.60;36.40;;;3.80;94.80;;;;;;5029188;28;20037;-81
2021/03/25 00:43:58;;;;;;;53.15;36.47;;;3.80;95.00;;;;;;5030345;28;20121;-81
2021/03/25 00:46:24;;;;;;;58.15;36.55;;;3.80;95.00;;;;;;5030836;28;20064;-81
2021/03/25 00:48:50;;;;;;;53.80;35.85;;;3.80;95.00;;;;;;5029435;28;20038;-81
2021/03/25 00:51:15;;;;;;;60.28;35.22;;;3.80;95.30;;;;;;5023849;28;20081;-81
2021/03/25 00:53:41;;;;;;;53.08;35.30;;;3.80;94.90;;;;;;5034240;28;20034;-81
2021/03/25 00:56:07;;;;;;;51.95;33.95;;;3.80;95.00;;;;;;5029268;28;20034;-81
2021/03/25 00:58:33;;;;;;;51.30;33.95;;;3.70;94.90;;;;;;5047244;28;20121;-81
2021/03/25 01:01:00;;;;;;;46.78;33.67;;;3.70;94.90;;;;;;5028021;28;20160;-81
2021/03/25 01:03:27;;;;;;;59.95;37.00;;;3.60;94.80;;;;;;5034210;28;20464;-81
2021/03/25 01:05:55;;;;;;;58.10;36.03;;;3.70;94.90;;;;;;5023490;28;20133;-81
2021/03/25 01:08:21;;;;;;;57.75;37.75;;;3.70;95.00;;;;;;5025836;28;20049;-81
2021/03/25 01:10:54;;;;;;;56.25;35.80;;;3.70;95.10;;;;;;5025571;28;20432;-81
2021/03/25 01:13:27;;;;;;;58.60;37.20;;;3.70;95.10;;;;;;5024299;28;20030;-81
2021/03/25 01:15:54;;;;;;;47.83;31.65;;;3.70;95.10;;;;;;5039656;28;20061;-81
2021/03/25 01:18:20;;;;;;;63.38;37.75;;;3.70;95.10;;;;;;5031402;28;20041;-81
2021/03/25 01:20:46;;;;;;;64.32;35.95;;;3.70;95.10;;;;;;5025311;28;20397;-81
2021/03/25 01:23:12;;;;;;;58.55;36.60;;;3.70;95.20;;;;;;5031149;28;20041;-81
2021/03/25 01:25:39;;;;;;;54.35;34.25;;;3.70;95.30;;;;;;5032565;28;20063;-81
2021/03/25 01:28:09;;;;;;;56.67;35.03;;;3.70;95.20;;;;;;5031669;28;20049;-81
2021/03/25 01:30:37;;;;;;;57.92;37.28;;;3.70;95.20;;;;;;5034887;28;20342;-81
2021/03/25 01:33:07;;;;;;;56.78;37.17;;;3.60;95.20;;;;;;5029479;28;20417;-81
2021/03/25 01:35:34;;;;;;;56.28;36.35;;;3.60;95.20;;;;;;5017192;28;20167;-81
2021/03/25 01:38:00;;;;;;;53.67;35.38;;;3.60;95.30;;;;;;5026503;28;20046;-81
2021/03/25 01:40:33;;;;;;;58.30;35.17;;;3.60;95.20;;;;;;5044999;28;20053;-81
2021/03/25 01:43:27;;;;;;;53.33;34.10;;;3.60;95.30;;;;;;5028456;28;20045;-81
2021/03/25 01:46:16;;;;;;;55.05;35.25;;;3.60;95.30;;;;;;5031564;28;20052;-81
2021/03/25 01:48:45;;;;;;;59.80;37.55;;;3.60;95.40;;;;;;5024182;28;20049;-81
2021/03/25 01:51:36;;;;;;;60.85;37.65;;;3.60;95.40;;;;;;5028787;28;20144;-81
2021/03/25 01:54:40;;;;;;;63.05;38.85;;;3.60;95.50;;;;;;5043214;28;20448;-81
2021/03/25 01:57:23;;;;;;;60.40;38.47;;;3.70;95.60;;;;;;5022602;28;20033;-81
2021/03/25 02:00:14;;;;;;;64.32;37.00;;;3.70;95.60;;;;;;5045393;28;20128;-81
2021/03/25 02:02:54;;;;;;;59.60;37.60;;;3.70;95.60;;;;;;5024620;28;20088;-81
2021/03/25 02:05:42;;;;;;;64.03;39.25;;;3.80;95.60;;;;;;5025749;28;20095;-81
2021/03/25 02:08:25;;;;;;;67.25;39.70;;;3.80;95.60;;;;;;5027284;28;20061;-81
2021/03/25 02:11:32;;;;;;;63.53;37.88;;;3.80;95.70;;;;;;5042491;28;20476;-81
2021/03/25 02:14:15;;;;;;;63.78;39.00;;;3.90;95.80;;;;;;5022725;28;20042;-81
2021/03/25 02:16:54;;;;;;;63.03;39.25;;;4.00;95.80;;;;;;5028844;28;20065;-81
2021/03/25 02:19:39;;;;;;;59.13;39.25;;;4.00;95.90;;;;;;5019169;28;20042;-81
2021/03/25 02:22:30;;;;;;;75.20;42.80;;;4.10;95.90;;;;;;5028954;28;20045;-81
2021/03/25 02:25:01;;;;;;;57.65;37.65;;;4.20;96.00;;;;;;5016672;28;20033;-81
2021/03/25 02:27:41;;;;;;;74.15;42.55;;;4.20;96.00;;;;;;5025375;28;20107;-81
2021/03/25 02:30:09;;;;;;;62.25;41.08;;;4.30;96.20;;;;;;5019234;28;20478;-81
2021/03/25 02:32:47;;;;;;;72.28;43.90;;;4.40;96.30;;;;;;5041158;28;20045;-81
2021/03/25 02:35:39;;;;;;;75.82;45.53;;;4.60;96.20;;;;;;5021556;28;20034;-81
2021/03/25 02:38:10;;;;;;;70.30;43.28;;;4.70;96.40;;;;;;5028607;28;20053;-81
2021/03/25 02:41:00;;;;;;;63.35;40.85;;;4.70;96.50;;;;;;5019560;28;20454;-81
2021/03/25 02:43:34;;;;;;;68.72;44.08;;;4.80;96.40;;;;;;5028149;28;20033;-81
2021/03/25 02:46:11;;;;;;;68.82;42.72;;;4.90;96.40;;;;;;5017142;28;20055;-81
2021/03/25 02:48:39;;;;;;;64.78;42.33;;;4.90;96.30;;;;;;5020725;28;20061;-81
2021/03/25 02:51:14;;;;;;;58.13;38.17;;;5.00;96.20;;;;;;5022778;28;20057;-81
2021/03/25 02:53:43;;;;;;;66.63;41.67;;;5.00;96.10;;;;;;5019122;28;20085;-81
2021/03/25 02:56:32;;;;;;;60.30;40.83;;;5.00;96.10;;;;;;5021293;28;20117;-81
2021/03/25 02:59:14;;;;;;;60.85;40.00;;;5.10;96.00;;;;;;5023331;28;20034;-81
2021/03/25 03:01:44;;;;;;;65.57;40.17;;;5.10;95.90;;;;;;5022305;28;20672;-81
2021/03/25 03:04:21;;;;;;;68.43;41.08;;;5.00;95.90;;;;;;5029780;28;20049;-81
2021/03/25 03:06:51;;;;;;;59.88;40.67;;;5.10;95.80;;;;;;5023468;28;20056;-81
2021/03/25 03:09:27;;;;;;;59.15;39.03;;;5.10;95.80;;;;;;5022615;28;20053;-81
2021/03/25 03:11:57;;;;;;;58.92;38.40;;;5.10;95.80;;;;;;5023646;28;20042;-81
2021/03/25 03:14:29;;;;;;;58.65;39.10;;;5.10;95.80;;;;;;5024735;28;20107;-81
2021/03/25 03:17:07;;;;;;;65.43;41.05;;;5.10;95.70;;;;;;5015393;28;20103;-81
2021/03/25 03:19:46;;;;;;;63.33;40.80;;;5.00;95.90;;;;;;5027352;28;20474;-81
2021/03/25 03:22:12;;;;;;;60.65;39.47;;;4.90;95.50;;;;;;5020146;28;20068;-81
2021/03/25 03:24:39;;;;;;;55.92;39.20;;;4.90;95.50;;;;;;5004959;28;20065;-81
2021/03/25 03:27:12;;;;;;;61.67;38.28;;;4.80;95.40;;;;;;5036338;28;20056;-81
2021/03/25 03:29:42;;;;;;;60.15;39.53;;;4.80;95.40;;;;;;5022318;28;20150;-81
2021/03/25 03:32:23;;;;;;;69.90;43.00;;;4.70;95.50;;;;;;5020821;28;20124;-81
2021/03/25 03:34:51;;;;;;;67.03;40.70;;;4.80;95.60;;;;;;5021885;28;20494;-81
2021/03/25 03:37:25;;;;;;;63.30;40.38;;;4.80;95.70;;;;;;5039024;28;20053;-81
2021/03/25 03:39:54;;;;;;;68.50;42.77;;;4.80;95.70;;;;;;5025896;28;20037;-81
2021/03/25 03:42:22;;;;;;;74.63;45.05;;;4.90;95.70;;;;;;5019812;28;20296;-81
2021/03/25 03:44:51;;;;;;;70.70;42.17;;;4.90;95.90;;;;;;5024764;28;20057;-81
2021/03/25 03:47:21;;;;;;;66.05;43.47;;;4.90;95.90;;;;;;5035019;28;20482;-81
2021/03/25 03:50:13;;;;;;;71.13;44.30;;;4.90;95.90;;;;;;5027121;28;20045;-81
2021/03/25 03:52:40;;;;;;;66.10;42.38;;;5.00;96.00;;;;;;5022351;28;20049;-81
2021/03/25 03:55:10;;;;;;;69.43;42.28;;;5.00;96.00;;;;;;5021411;28;20518;-81
2021/03/25 03:58:13;;;;;;;70.20;44.38;;;5.20;96.00;;;;;;5019804;28;20040;-81
2021/03/25 04:00:45;;;;;;;67.32;43.25;;;5.20;95.90;;;;;;5021343;28;20466;-81
2021/03/25 04:03:40;;;;;;;65.43;41.78;;;5.20;95.80;;;;;;5020414;28;20057;-81
2021/03/25 04:06:15;;;;;;;68.43;42.17;;;5.30;95.90;;;;;;5023650;28;20134;-81
2021/03/25 04:08:54;;;;;;;67.43;42.42;;;5.30;95.90;;;;;;5024161;28;20041;-81
2021/03/25 04:11:36;;;;;;;62.47;41.35;;;5.30;95.80;;;;;;5027561;28;20392;-81
2021/03/25 04:14:12;;;;;;;68.97;42.42;;;5.40;95.80;;;;;;5038356;28;20046;-81
2021/03/25 04:16:41;;;;;;;73.28;45.13;;;5.40;95.70;;;;;;5027390;28;20112;-82
2021/03/25 04:19:17;;;;;;;65.65;40.65;;;5.40;95.80;;;;;;5032871;28;20145;-82
2021/03/25 04:21:52;;;;;;;69.05;44.03;;;5.40;95.70;;;;;;5021944;28;20698;-81
2021/03/25 04:24:23;;;;;;;62.97;41.53;;;5.40;95.70;;;;;;5034917;28;20057;-81
2021/03/25 04:26:57;;;;;;;65.85;41.92;;;5.40;95.70;;;;;;5021966;28;20098;-81
2021/03/25 04:29:29;;;;;;;64.72;41.95;;;5.50;95.70;;;;;;5013801;28;20044;-81
2021/03/25 04:31:57;;;;;;;69.90;43.45;;;5.50;95.60;;;;;;5018226;28;20053;-81
2021/03/25 04:34:23;;;;;;;60.10;39.47;;;5.40;95.50;;;;;;5021424;28;20115;-81
2021/03/25 04:36:49;;;;;;;64.50;42.17;;;5.40;95.50;;;;;;5021567;28;20033;-82
2021/03/25 04:39:17;;;;;;;64.50;41.42;;;5.40;95.40;;;;;;5038824;28;20057;-81
2021/03/25 04:41:46;;;;;;;61.85;41.05;;;5.40;95.40;;;;;;5021810;28;20462;-81
2021/03/25 04:44:31;;;;;;;71.13;43.45;;;5.40;95.30;;;;;;5027129;28;20474;-81
2021/03/25 04:47:06;;;;;;;62.70;40.03;;;5.40;95.30;;;;;;5024779;28;20042;-81
2021/03/25 04:49:36;;;;;;;;;;;5.30;95.30;;;;;;5024435;28;20420;-81
2021/03/25 04:52:05;;;;;;;70.97;43.10;;;5.20;95.20;;;;;;5029021;28;19925;-81
2021/03/25 04:54:40;;;;;;;65.53;42.10;;;5.20;95.30;;;;;;5021475;28;20045;-81
2021/03/25 04:57:35;;;;;;;74.25;43.03;;;5.20;95.30;;;;;;5028094;28;20101;-81
2021/03/25 05:00:16;;;;;;;74.25;45.75;;;5.20;95.30;;;;;;5037051;28;20046;-81
2021/03/25 05:02:43;;;;;;;70.25;44.95;;;5.20;95.30;;;;;;5023508;28;20186;-81
2021/03/25 05:05:16;;;;;;;77.97;45.75;;;5.10;95.30;;;;;;5019061;28;20076;-81
2021/03/25 05:07:46;;;;;;;68.85;43.55;;;5.10;95.30;;;;;;5031653;28;20121;-81
2021/03/25 05:10:21;;;;;;;74.22;45.40;;;5.10;95.40;;;;;;5041286;28;20600;-81
2021/03/25 05:12:51;;;;;;;69.20;43.13;;;5.10;95.40;;;;;;5035987;28;20116;-81
2021/03/25 05:15:18;;;;;;;74.28;45.72;;;5.10;95.40;;;;;;5018321;28;20041;-81
2021/03/25 05:18:10;;;;;;;79.63;46.35;;;5.10;95.40;;;;;;5026747;28;20113;-81
2021/03/25 05:20:42;;;;;;;75.15;47.67;;;5.10;95.30;;;;;;5027892;28;20603;-82
2021/03/25 05:23:35;;;;;;;79.13;47.13;;;5.00;95.30;;;;;;5030516;28;20084;-82
2021/03/25 05:26:15;;;;;;;74.30;46.30;;;4.90;95.40;;;;;;5021410;28;20052;-81
2021/03/25 05:28:48;;;;;;;70.20;43.80;;;4.90;95.30;;;;;;5027634;28;20037;-81
2021/03/25 05:31:15;;;;;;;72.68;45.70;;;4.90;95.20;;;;;;5022259;28;20099;-81
2021/03/25 05:33:47;;;;;;;73.25;45.30;;;4.80;95.10;;;;;;5032010;28;20044;-81
2021/03/25 05:36:14;;;;;;;74.97;46.58;;;4.80;95.10;;;;;;5027573;28;20049;-81
2021/03/25 05:38:41;;;;;;;80.38;48.35;;;4.70;95.30;;;;;;5034086;28;20446;-81
2021/03/25 05:41:06;;;;;;;81.40;48.15;;;4.70;95.30;;;;;;5026692;28;20445;-81
2021/03/25 05:43:57;;;;;;;82.55;47.97;;;4.60;95.30;;;;;;5048860;28;20049;-81
2021/03/25 05:46:28;;;;;;;80.60;47.38;;;4.60;95.30;;;;;;5022545;28;20045;-81
2021/03/25 05:49:13;;;;;;;76.75;45.30;;;4.60;95.40;;;;;;5033708;28;20064;-81
2021/03/25 05:51:57;;;;;;;84.05;48.08;;;4.60;95.40;;;;;;5023435;28;20050;-81
2021/03/25 05:54:31;;;;;;;83.67;48.20;;;4.60;95.30;;;;;;5025486;28;20297;-81
2021/03/25 05:57:19;;;;;;;86.95;47.20;;;4.50;95.30;;;;;;5029124;28;20391;-81
2021/03/25 06:00:07;;;;;;;88.38;51.60;;;4.50;95.30;;;;;;5030114;28;20060;-81
2021/03/25 06:02:40;;;;;;;84.03;49.20;;;4.50;95.40;;;;;;5039797;28;20049;-81
2021/03/25 06:05:10;;;;;;;82.85;46.95;;;4.60;95.60;;;;;;5025271;28;20089;-81
2021/03/25 06:07:54;;;;;;;83.38;49.53;;;4.60;95.70;;;;;;5026274;28;20053;-81
2021/03/25 06:10:25;;;;;;;83.63;50.25;;;4.70;95.80;;;;;;5041712;28;20061;-81
2021/03/25 06:13:28;;;;;;;75.88;46.13;;;4.80;95.80;;;;;;5028623;28;20053;-82
2021/03/25 06:16:11;;;;;;;83.15;48.00;;;4.90;96.00;;;;;;5033358;28;20454;-82
2021/03/25 06:18:44;;;;;;;78.53;43.50;;;4.90;95.80;;;;;;5045708;28;20128;-81
2021/03/25 06:21:41;;;;;;;75.40;46.60;;;4.90;95.70;;;;;;5044383;28;20045;-82
2021/03/25 06:24:25;;;;;;;80.18;46.00;;;5.00;95.70;;;;;;5032595;28;20098;-81
2021/03/25 06:27:14;;;;;;;83.28;46.60;;;5.00;95.80;;;;;;5028130;28;20038;-80
2021/03/25 06:29:48;;;;;;;78.10;47.03;;;5.20;95.90;;;;;;5013623;28;20053;-77
2021/03/25 06:32:28;;;;;;;81.20;49.95;;;5.30;96.10;;;;;;5024341;28;20058;-79
2021/03/25 06:35:02;;;;;;;88.55;51.83;;;5.50;96.20;;;;;;5036157;28;20046;-79
2021/03/25 06:37:39;;;;;;;;;;;5.70;96.30;;;;;;5024953;28;20371;-81
2021/03/25 06:40:16;;;;;;;71.40;44.85;;;5.90;97.10;;;;;;5015263;28;19932;-81
2021/03/25 06:42:47;;;;;;;80.30;51.35;;;6.30;96.40;;;;;;5027411;28;20058;-80
2021/03/25 06:45:31;;;;;;;79.63;51.35;;;6.40;96.00;;;;;;5023185;28;20500;-79
2021/03/25 06:48:16;;;;;;;74.97;48.53;;;6.50;95.70;;;;;;5022580;28;20544;-80
2021/03/25 06:50:47;;;;;;;79.80;49.85;;;6.60;95.50;;;;;;5018021;28;20054;-79
2021/03/25 06:53:27;;;;;;;77.00;49.05;;;6.70;95.30;;;;;;5023257;28;20034;-80
2021/03/25 06:56:15;;;;;;;76.35;48.47;;;6.80;95.10;;;;;;5023496;28;20060;-79
2021/03/25 06:59:03;;;;;;;71.40;47.08;;;6.90;94.90;;;;;;5034777;28;20132;-79
2021/03/25 07:01:40;;;;;;;72.55;48.42;;;7.00;94.80;;;;;;5023284;28;20468;-79
2021/03/25 07:04:28;;;;;;;74.50;48.95;;;7.10;94.60;;;;;;5017623;28;20060;-79
2021/03/25 07:07:00;;;;;;;74.57;49.85;;;7.20;94.50;;;;;;5018813;28;20053;-80
2021/03/25 07:09:31;;;;;;;72.60;48.00;;;7.30;94.30;;;;;;5023348;28;20055;-80
2021/03/25 07:12:01;;;;;;;69.78;47.63;;;7.40;94.10;;;;;;5025872;28;20057;-79
2021/03/25 07:14:37;;;;;;;78.95;49.45;;;7.40;94.10;;;;;;5028028;28;20041;-80
2021/03/25 07:17:04;;;;;;;69.43;47.13;;;7.50;94.00;;;;;;5040122;28;20588;-79
2021/03/25 07:19:34;;;;;;;76.50;47.58;;;7.50;93.80;;;;;;5020970;28;20049;-79
2021/03/25 07:22:19;;;;;;;70.93;46.47;;;7.50;93.70;;;;;;5010337;28;20049;-79
2021/03/25 07:24:45;;;;;;;72.43;46.75;;;7.50;93.60;;;;;;5039894;28;20145;-81
2021/03/25 07:27:13;;;;;;;75.22;48.03;;;7.40;93.60;;;;;;5031303;28;20042;-79
2021/03/25 07:29:45;;;;;;;73.55;49.83;;;7.50;93.70;;;;;;5046542;28;20037;-78
2021/03/25 07:32:10;;;;;;;72.90;49.75;;;7.50;93.70;;;;;;5031042;28;20959;-79
2021/03/25 07:34:47;;;;;;;72.78;47.53;;;7.60;93.80;;;;;;5039992;28;20038;-79
2021/03/25 07:37:40;;;;;;;68.30;47.75;;;7.60;93.90;;;;;;5036864;28;20068;-79
2021/03/25 07:40:34;;;;;;;75.40;49.88;;;7.70;93.70;;;;;;5017061;28;20056;-79
2021/03/25 07:43:26;;;;;;;77.40;49.63;;;7.80;93.60;;;;;;5030300;28;20042;-80
2021/03/25 07:46:24;;;;;;;75.43;50.22;;;8.00;93.70;;;;;;5024922;28;20470;-80
2021/03/25 07:48:59;;;;;;;72.22;49.08;;;8.10;93.50;;;;;;5040504;28;20151;-82
2021/03/25 07:51:25;;;;;;;70.85;48.92;;;8.20;93.40;;;;;;5018206;28;20092;-82
2021/03/25 07:54:28;;;;;;;75.57;50.60;;;8.30;93.20;;;;;;5024492;28;20462;-82
2021/03/25 07:57:04;;;;;;;76.68;48.85;;;8.40;93.10;;;;;;5036895;28;20045;-82
2021/03/25 07:59:38;;;;;;;73.43;49.03;;;8.50;93.00;;;;;;5036061;28;20041;-82
2021/03/25 08:02:21;;;;;;;74.80;49.42;;;8.50;92.90;;;;;;5041868;28;20038;-82
2021/03/25 08:04:47;;;;;;;74.82;50.88;;;8.60;92.60;;;;;;5028706;28;20046;-82
2021/03/25 08:07:13;;;;;;;72.45;49.97;;;8.60;92.70;;;;;;5029078;28;20996;-83
2021/03/25 08:09:48;;;;;;;75.10;49.35;;;8.60;92.60;;;;;;5028640;28;20049;-82
2021/03/25 08:12:25;;;;;;;78.75;49.60;;;8.70;92.50;;;;;;5032692;28;20113;-82
2021/03/25 08:15:02;;;;;;;71.78;48.90;;;8.70;92.20;;;;;;5045639;28;20458;-82
2021/03/25 08:17:54;;;;;;;74.38;48.03;;;8.80;92.40;;;;;;5026238;28;20053;-82
2021/03/25 08:20:32;;;;;;;75.22;49.67;;;8.90;92.40;;;;;;5035399;28;20029;-82
2021/03/25 08:23:00;;;;;;;68.75;46.88;;;9.00;92.30;;;;;;5027350;28;20064;-81
2021/03/25 08:25:48;;;;;;;71.25;48.80;;;9.10;92.10;;;;;;5030427;28;20461;-82
2021/03/25 08:28:25;;;;;;;75.93;50.33;;;9.20;92.00;;;;;;5042746;28;20056;-81
2021/03/25 08:30:53;;;;;;;71.22;50.42;;;9.40;91.90;;;;;;5026526;28;20056;-81
2021/03/25 08:33:44;;;;;;;72.00;49.25;;;9.50;91.70;;;;;;5020844;28;20049;-81
2021/03/25 08:36:31;;;;;;;71.00;49.40;;;9.60;91.50;;;;;;5025338;28;20030;-82
2021/03/25 08:39:26;;;;;;;76.85;50.42;;;9.80;91.00;;;;;;5028189;28;20046;-82
2021/03/25 08:42:03;;;;;;;72.45;48.08;;;9.90;91.00;;;;;;5027109;28;20073;-83
2021/03/25 08:44:43;;;;;;;72.25;48.83;;;10.00;90.40;;;;;;5026175;28;20535;-83
2021/03/25 08:47:19;;;;;;;71.65;49.72;;;10.10;89.50;;;;;;5030800;28;20081;-82
2021/03/25 08:49:57;;;;;;;71.00;48.83;;;10.20;90.00;;;;;;5030111;28;20160;-82
2021/03/25 08:52:25;;;;;;;67.68;46.90;;;10.30;89.90;;;;;;5030617;28;20058;-82
2021/03/25 08:55:06;;;;;;;71.30;48.03;;;10.50;89.70;;;;;;5024116;28;20064;-82
2021/03/25 08:57:36;;;;;;;66.25;45.83;;;10.70;88.80;;;;;;5033715;28;20037;-82
2021/03/25 09:00:05;;;;;;;68.93;48.20;;;10.70;87.60;;;;;;5031167;28;20096;-83
2021/03/25 09:02:52;;;;;;;60.92;43.75;;;10.80;87.70;;;;;;5030084;28;20124;-83
2021/03/25 09:05:32;;;;;;;55.88;43.35;;;10.90;86.20;;;;;;5033900;28;20073;-83
2021/03/25 09:08:00;;;;;;;59.25;42.60;;;11.00;86.70;;;;;;5031388;28;20037;-83
2021/03/25 09:10:46;;;;;;;61.80;42.85;;;11.10;86.50;;;;;;5021432;28;20156;-81
2021/03/25 09:13:26;;;;;;;56.38;40.50;;;11.30;84.40;;;;;;5027596;28;20119;-81
2021/03/25 09:15:55;;;;;;;57.15;41.67;;;11.40;85.00;;;;;;5023962;28;20037;-81
2021/03/25 09:18:28;;;;;;;55.28;41.00;;;11.40;83.80;;;;;;5022682;28;20033;-81
2021/03/25 09:20:56;;;;;;;60.05;42.38;;;11.40;82.90;;;;;;5023330;28;20072;-81
2021/03/25 09:23:31;;;;;;;63.88;41.95;;;11.30;82.60;;;;;;5032775;28;20108;-81
2021/03/25 09:26:12;;;;;;;58.22;39.90;;;11.30;82.90;;;;;;5027045;28;20510;-81
2021/03/25 09:28:58;;;;;;;59.90;40.78;;;11.40;82.80;;;;;;5046525;28;20049;-81
2021/03/25 09:31:26;;;;;;;55.97;40.80;;;11.70;80.50;;;;;;5034131;28;20049;-81
2021/03/25 09:33:56;;;;;;;50.60;38.38;;;12.20;83.20;;;;;;5034150;28;20033;-81
2021/03/25 09:36:33;;;;;;;51.17;37.50;;;12.60;81.10;;;;;;5016220;28;20044;-81
2021/03/25 09:39:02;;;;;;;49.22;35.28;;;12.70;79.30;;;;;;5033025;28;20079;-81
2021/03/25 09:41:28;;;;;;;50.22;35.80;;;12.90;77.40;;;;;;5026950;28;20053;-81
2021/03/25 09:44:09;;;;;;;47.10;34.25;;;13.20;77.60;;;;;;5031046;28;20068;-81
2021/03/25 09:46:43;;;;;;;54.28;35.95;;;13.40;74.10;;;;;;5043772;28;20045;-81
2021/03/25 09:49:41;;;;;;;49.95;35.08;;;13.50;74.70;;;;;;5024723;28;20045;-81
2021/03/25 09:52:16;;;;;;;47.47;33.90;;;13.70;74.50;;;;;;5027186;28;20081;-81
2021/03/25 09:55:11;;;;;;;45.97;33.55;;;13.90;74.20;;;;;;5033308;28;20045;-81
2021/03/25 09:57:42;;;;;;;48.55;35.67;;;14.10;71.20;;;;;;5026298;28;20041;-81
2021/03/25 10:00:11;;;;;;;45.60;34.15;;;14.10;72.40;;;;;;5036512;28;20048;-81
2021/03/25 10:02:40;;;;;;;49.45;36.08;;;14.20;71.40;;;;;;5018251;28;20394;-81
2021/03/25 10:05:24;;;;;;;52.83;37.78;;;14.10;71.70;;;;;;5040787;28;20053;-81
2021/03/25 10:08:09;;;;;;;49.10;36.33;;;14.10;70.40;;;;;;5042618;28;20073;-82
2021/03/25 10:10:54;;;;;;;53.67;36.92;;;14.10;70.10;;;;;;5046485;28;20069;-81
2021/03/25 10:13:29;;;;;;;50.25;34.83;;;14.20;70.00;;;;;;5027598;28;20055;-81
2021/03/25 10:15:59;;;;;;;52.03;35.58;;;14.40;69.80;;;;;;5020455;28;20113;-81
2021/03/25 10:18:24;;;;;;;51.40;37.83;;;14.60;70.30;;;;;;5026857;28;20129;-81
2021/03/25 10:21:18;;;;;;;50.28;35.78;;;14.70;69.30;;;;;;5029723;28;20057;-81
2021/03/25 10:23:49;;;;;;;48.95;35.28;;;14.90;66.60;;;;;;4999638;28;20116;-81
2021/03/25 10:26:35;;;;;;;45.95;34.72;;;15.00;66.60;;;;;;5033330;28;20046;-81
2021/03/25 10:29:15;;;;;;;48.35;34.63;;;15.00;65.60;;;;;;5040969;28;20097;-81
2021/03/25 10:31:48;;;;;;;45.00;34.10;;;15.00;67.10;;;;;;5024857;28;20042;-80
2021/03/25 10:34:37;;;;;;;48.72;34.80;;;15.10;67.30;;;;;;5031628;28;20080;-81
2021/03/25 10:37:23;;;;;;;45.38;32.63;;;15.10;67.30;;;;;;5022646;28;20044;-81
2021/03/25 10:39:49;;;;;;;51.88;35.40;;;15.00;66.80;;;;;;5019170;28;20068;-81
2021/03/25 10:42:37;;;;;;;50.70;37.67;;;15.00;67.90;;;;;;5023652;28;20140;-81
2021/03/25 10:45:31;;;;;;;45.63;31.95;;;15.00;65.70;;;;;;5025961;28;20084;-81
2021/03/25 10:48:14;;;;;;;42.38;29.67;;;14.90;63.70;;;;;;5018767;28;20448;-81
2021/03/25 10:50:51;;;;;;;34.13;24.23;;;15.00;66.00;;;;;;5032275;28;20444;-81
2021/03/25 10:53:23;;;;;;;34.17;24.48;;;15.10;64.80;;;;;;5020798;28;20046;-82
2021/03/25 10:55:51;;;;;;;34.85;25.77;;;15.20;63.00;;;;;;5033725;28;20033;-82
2021/03/25 10:58:27;;;;;;;36.80;27.27;;;15.40;64.30;;;;;;5030101;28;20061;-82
2021/03/25 11:01:14;;;;;;;39.28;27.08;;;15.60;62.90;;;;;;5022379;28;20069;-82
2021/03/25 11:03:41;;;;;;;41.03;27.52;;;15.70;60.30;;;;;;5028217;28;20136;-81
2021/03/25 11:06:16;;;;;;;35.75;25.88;;;15.60;61.80;;;;;;5024426;28;20052;-82
2021/03/25 11:08:43;;;;;;;36.80;26.88;;;15.40;62.00;;;;;;5023854;28;20043;-81
2021/03/25 11:11:21;;;;;;;34.03;25.63;;;15.30;61.60;;;;;;5029128;28;20034;-81
2021/03/25 11:14:00;;;;;;;38.03;26.70;;;15.30;61.60;;;;;;5024824;28;20084;-81
2021/03/25 11:16:26;;;;;;;36.70;25.25;;;15.40;62.00;;;;;;5029027;28;20058;-81
2021/03/25 11:19:12;;;;;;;32.47;24.63;;;15.40;63.10;;;;;;5029551;28;20095;-80
2021/03/25 11:21:42;;;;;;;36.40;25.00;;;15.60;61.30;;;;;;5038063;28;20033;-82
2021/03/25 11:24:25;;;;;;;35.70;26.58;;;15.70;62.70;;;;;;5020946;28;20167;-83
2021/03/25 11:27:06;;;;;;;32.78;25.42;;;15.80;62.20;;;;;;5024229;28;20038;-82
2021/03/25 11:29:39;;;;;;;29.48;22.33;;;15.80;62.50;;;;;;5018159;28;20088;-81
2021/03/25 11:32:24;;;;;;;31.05;21.83;;;15.80;60.50;;;;;;5034825;28;20116;-82
2021/03/25 11:34:54;;;;;;;33.45;24.23;;;15.70;61.10;;;;;;5027127;28;20536;-83
2021/03/25 11:37:36;;;;;;;30.55;22.65;;;15.60;62.30;;;;;;5028835;28;20131;-82
2021/03/25 11:40:12;;;;;;;32.97;24.30;;;15.60;61.60;;;;;;5026093;28;20421;-83
2021/03/25 11:42:40;;;;;;;29.65;22.58;;;15.60;62.50;;;;;;5028467;28;20111;-82
2021/03/25 11:45:47;;;;;;;31.38;23.77;;;15.70;63.20;;;;;;5032065;28;20076;-84
2021/03/25 11:48:21;;;;;;;31.38;24.35;;;15.70;60.60;;;;;;5031472;28;20041;-81
2021/03/25 11:50:48;;;;;;;;;;;15.60;62.60;;;;;;5037215;28;20053;-80
2021/03/25 11:53:31;;;;;;;33.58;25.42;;;15.60;62.20;;;;;;5025503;28;19979;-80
2021/03/25 11:55:58;;;;;;;39.03;26.03;;;15.80;62.20;;;;;;5027819;28;20037;-79
2021/03/25 11:58:24;;;;;;;37.95;27.73;;;15.90;63.20;;;;;;5043372;28;20084;-79
2021/03/25 12:01:01;;;;;;;33.17;27.38;;;16.00;63.20;;;;;;5024009;28;20034;-79
2021/03/25 12:03:32;;;;;;;36.03;28.65;;;16.00;61.40;;;;;;5029091;28;20072;-79
2021/03/25 12:05:57;;;;;;;37.58;28.98;;;15.90;62.00;;;;;;5020187;28;20049;-78
2021/03/25 12:08:32;;;;;;;38.22;29.48;;;15.80;63.20;;;;;;5023870;28;20100;-79
2021/03/25 12:11:06;;;;;;;37.03;28.85;;;15.80;63.30;;;;;;5024258;28;20490;-79
2021/03/25 12:13:32;;;;;;;38.92;27.38;;;15.70;63.20;;;;;;5024003;28;20569;-80
2021/03/25 12:15:59;;;;;;;41.05;30.23;;;15.50;64.10;;;;;;5018925;28;20060;-79
2021/03/25 12:18:38;;;;;;;42.50;30.65;;;15.50;64.60;;;;;;5040005;28;20042;-79
2021/03/25 12:21:08;;;;;;;43.83;32.30;;;15.50;64.50;;;;;;5016396;28;20124;-78
2021/03/25 12:23:38;;;;;;;42.00;33.08;;;15.40;65.50;;;;;;5037110;28;20481;-78
2021/03/25 12:26:10;;;;;;;46.15;35.05;;;15.30;66.20;;;;;;5009896;28;20095;-79
2021/03/25 12:28:36;;;;;;;44.90;32.53;;;15.30;67.60;;;;;;5017619;28;20108;-79
2021/03/25 12:31:02;;;;;;;47.97;33.53;;;15.40;68.10;;;;;;5026505;28;20033;-78
2021/03/25 12:33:39;;;;;;;41.30;30.83;;;15.40;68.60;;;;;;5010682;28;20049;-79
2021/03/25 12:36:08;;;;;;;39.03;30.52;;;15.50;66.90;;;;;;5024577;28;20665;-78
2021/03/25 12:38:35;;;;;;;38.28;29.40;;;15.40;67.00;;;;;;5016667;28;20228;-79
2021/03/25 12:41:01;;;;;;;39.60;29.63;;;15.40;66.90;;;;;;5022402;28;20045;-79
2021/03/25 12:43:29;;;;;;;40.90;30.88;;;15.30;67.00;;;;;;5013682;28;20096;-78
2021/03/25 12:46:06;;;;;;;35.03;29.10;;;15.30;67.20;;;;;;5027523;28;20111;-79
2021/03/25 12:48:33;;;;;;;40.45;29.73;;;15.30;65.80;;;;;;5020192;28;20558;-78
2021/03/25 12:51:00;;;;;;;37.72;28.83;;;15.20;68.00;;;;;;5022920;28;20088;-78
2021/03/25 12:53:28;;;;;;;36.55;28.60;;;15.30;66.80;;;;;;5024032;28;20373;-78
2021/03/25 12:55:55;;;;;;;41.00;29.88;;;15.40;66.10;;;;;;5025334;28;20172;-79
2021/03/25 12:58:25;;;;;;;41.67;31.05;;;15.40;66.80;;;;;;5014801;28;20100;-78
2021/03/25 13:00:52;;;;;;;43.65;32.65;;;15.30;67.30;;;;;;5025959;28;20455;-79
2021/03/25 13:03:18;;;;;;;41.22;32.40;;;15.30;68.20;;;;;;5025719;28;20073;-79
2021/03/25 13:05:44;;;;;;;42.20;32.58;;;15.20;70.20;;;;;;5029650;28;20516;-79
2021/03/25 13:08:11;;;;;;;43.53;36.17;;;15.00;71.00;;;;;;5017667;28;20073;-79
2021/03/25 13:10:37;;;;;;;45.80;35.92;;;14.80;73.70;;;;;;5021715;28;20038;-79
2021/03/25 13:13:09;;;;;;;48.15;37.72;;;14.60;75.60;;;;;;5035035;28;20045;-79
2021/03/25 13:15:36;;;;;;;50.15;38.13;;;14.50;77.00;;;;;;5025172;28;20053;-78